sensor_id;sensor_type;location;lat;lon;timestamp;P1;durP1;ratioP1;P2;durP2;ratioP2
15112;SDS011;7657;50.140;7.076;2024-01-06T00:00:32;4.93;;;1.40;;
15112;SDS011;7657;50.140;7.076;2024-01-06T00:02:59;3.47;;;1.50;;
15112;SDS011;7657;50.140;7.076;2024-01-06T00:05:26;3.57;;;1.50;;
15112;SDS011;7657;50.140;7.076;2024-01-06T00:07:53;2.43;;;1.47;;
15112;SDS011;7657;50.140;7.076;2024-01-06T00:10:20;2.43;;;1.20;;
15112;SDS011;7657;50.140;7.076;2024-01-06T00:12:46;2.73;;;1.33;;
15112;SDS011;7657;50.140;7.076;2024-01-06T00:15:13;6.27;;;1.93;;
15112;SDS011;7657;50.140;7.076;2024-01-06T00:17:42;3.90;;;1.60;;
15112;SDS011;7657;50.140;7.076;2024-01-06T00:20:09;2.80;;;1.37;;
15112;SDS011;7657;50.140;7.076;2024-01-06T00:22:36;4.67;;;1.50;;
15112;SDS011;7657;50.140;7.076;2024-01-06T00:25:03;2.73;;;1.50;;
15112;SDS011;7657;50.140;7.076;2024-01-06T00:27:31;2.27;;;1.40;;
15112;SDS011;7657;50.140;7.076;2024-01-06T00:29:58;3.57;;;1.33;;
15112;SDS011;7657;50.140;7.076;2024-01-06T00:32:25;2.43;;;1.40;;
15112;SDS011;7657;50.140;7.076;2024-01-06T00:34:53;3.23;;;1.17;;
15112;SDS011;7657;50.140;7.076;2024-01-06T00:37:20;3.10;;;1.93;;
15112;SDS011;7657;50.140;7.076;2024-01-06T00:39:47;4.80;;;1.80;;
15112;SDS011;7657;50.140;7.076;2024-01-06T00:42:14;4.10;;;1.90;;
15112;SDS011;7657;50.140;7.076;2024-01-06T00:44:41;6.20;;;1.97;;
15112;SDS011;7657;50.140;7.076;2024-01-06T00:47:10;4.43;;;1.93;;
15112;SDS011;7657;50.140;7.076;2024-01-06T00:49:37;5.20;;;2.20;;
15112;SDS011;7657;50.140;7.076;2024-01-06T00:52:05;4.60;;;1.93;;
15112;SDS011;7657;50.140;7.076;2024-01-06T00:54:32;2.67;;;1.80;;
15112;SDS011;7657;50.140;7.076;2024-01-06T00:56:59;4.17;;;1.83;;
15112;SDS011;7657;50.140;7.076;2024-01-06T00:59:26;5.00;;;2.17;;
15112;SDS011;7657;50.140;7.076;2024-01-06T01:01:53;4.20;;;1.90;;
15112;SDS011;7657;50.140;7.076;2024-01-06T01:04:20;3.77;;;2.00;;
15112;SDS011;7657;50.140;7.076;2024-01-06T01:06:47;6.93;;;2.30;;
15112;SDS011;7657;50.140;7.076;2024-01-06T01:09:15;2.90;;;1.87;;
15112;SDS011;7657;50.140;7.076;2024-01-06T01:11:42;5.63;;;2.17;;
15112;SDS011;7657;50.140;7.076;2024-01-06T01:14:09;4.73;;;1.93;;
15112;SDS011;7657;50.140;7.076;2024-01-06T01:16:36;5.63;;;2.20;;
15112;SDS011;7657;50.140;7.076;2024-01-06T01:19:03;6.00;;;2.27;;
15112;SDS011;7657;50.140;7.076;2024-01-06T01:21:29;6.37;;;2.60;;
15112;SDS011;7657;50.140;7.076;2024-01-06T01:23:56;4.27;;;2.10;;
15112;SDS011;7657;50.140;7.076;2024-01-06T01:26:25;2.90;;;1.70;;
15112;SDS011;7657;50.140;7.076;2024-01-06T01:28:52;2.23;;;1.93;;
15112;SDS011;7657;50.140;7.076;2024-01-06T01:31:19;2.97;;;1.83;;
15112;SDS011;7657;50.140;7.076;2024-01-06T01:33:46;2.83;;;2.23;;
15112;SDS011;7657;50.140;7.076;2024-01-06T01:36:12;2.93;;;2.00;;
15112;SDS011;7657;50.140;7.076;2024-01-06T01:38:39;4.07;;;2.40;;
15112;SDS011;7657;50.140;7.076;2024-01-06T01:41:06;3.50;;;2.30;;
15112;SDS011;7657;50.140;7.076;2024-01-06T01:43:34;5.97;;;2.20;;
15112;SDS011;7657;50.140;7.076;2024-01-06T01:46:01;3.47;;;2.30;;
15112;SDS011;7657;50.140;7.076;2024-01-06T01:48:28;2.33;;;2.10;;
15112;SDS011;7657;50.140;7.076;2024-01-06T01:50:56;5.10;;;2.23;;
15112;SDS011;7657;50.140;7.076;2024-01-06T01:53:23;3.23;;;2.30;;
15112;SDS011;7657;50.140;7.076;2024-01-06T01:55:51;4.77;;;1.83;;
15112;SDS011;7657;50.140;7.076;2024-01-06T01:58:18;2.50;;;1.80;;
15112;SDS011;7657;50.140;7.076;2024-01-06T02:00:47;2.60;;;1.90;;
15112;SDS011;7657;50.140;7.076;2024-01-06T02:03:14;8.40;;;5.73;;
15112;SDS011;7657;50.140;7.076;2024-01-06T02:05:42;5.63;;;3.10;;
15112;SDS011;7657;50.140;7.076;2024-01-06T02:08:09;5.10;;;2.17;;
15112;SDS011;7657;50.140;7.076;2024-01-06T02:10:36;3.80;;;2.43;;
15112;SDS011;7657;50.140;7.076;2024-01-06T02:13:09;2.80;;;2.07;;
15112;SDS011;7657;50.140;7.076;2024-01-06T02:15:36;4.73;;;2.70;;
15112;SDS011;7657;50.140;7.076;2024-01-06T02:18:05;4.97;;;2.97;;
15112;SDS011;7657;50.140;7.076;2024-01-06T02:20:32;3.00;;;2.40;;
15112;SDS011;7657;50.140;7.076;2024-01-06T02:23:01;3.43;;;2.03;;
15112;SDS011;7657;50.140;7.076;2024-01-06T02:25:28;4.10;;;2.17;;
15112;SDS011;7657;50.140;7.076;2024-01-06T02:27:55;4.97;;;2.50;;
15112;SDS011;7657;50.140;7.076;2024-01-06T02:30:22;2.73;;;2.20;;
15112;SDS011;7657;50.140;7.076;2024-01-06T02:32:48;3.77;;;2.23;;
15112;SDS011;7657;50.140;7.076;2024-01-06T02:35:15;2.90;;;2.33;;
15112;SDS011;7657;50.140;7.076;2024-01-06T02:37:42;3.17;;;2.30;;
15112;SDS011;7657;50.140;7.076;2024-01-06T02:40:11;2.80;;;1.73;;
15112;SDS011;7657;50.140;7.076;2024-01-06T02:42:39;5.90;;;3.50;;
15112;SDS011;7657;50.140;7.076;2024-01-06T02:45:07;3.90;;;2.50;;
15112;SDS011;7657;50.140;7.076;2024-01-06T02:47:34;4.50;;;2.83;;
15112;SDS011;7657;50.140;7.076;2024-01-06T02:50:01;4.10;;;2.73;;
15112;SDS011;7657;50.140;7.076;2024-01-06T02:52:28;2.60;;;2.37;;
15112;SDS011;7657;50.140;7.076;2024-01-06T02:54:55;4.10;;;2.33;;
15112;SDS011;7657;50.140;7.076;2024-01-06T02:57:23;2.60;;;2.40;;
15112;SDS011;7657;50.140;7.076;2024-01-06T02:59:50;2.83;;;2.10;;
15112;SDS011;7657;50.140;7.076;2024-01-06T03:02:17;5.67;;;2.93;;
15112;SDS011;7657;50.140;7.076;2024-01-06T03:04:44;4.13;;;2.70;;
15112;SDS011;7657;50.140;7.076;2024-01-06T03:07:11;5.03;;;2.37;;
15112;SDS011;7657;50.140;7.076;2024-01-06T03:09:37;6.73;;;3.80;;
15112;SDS011;7657;50.140;7.076;2024-01-06T03:12:05;3.37;;;2.63;;
15112;SDS011;7657;50.140;7.076;2024-01-06T03:14:34;4.90;;;2.80;;
15112;SDS011;7657;50.140;7.076;2024-01-06T03:17:00;8.57;;;4.43;;
15112;SDS011;7657;50.140;7.076;2024-01-06T03:19:28;22.47;;;12.27;;
15112;SDS011;7657;50.140;7.076;2024-01-06T03:21:54;3.93;;;2.60;;
15112;SDS011;7657;50.140;7.076;2024-01-06T03:24:22;10.83;;;6.00;;
15112;SDS011;7657;50.140;7.076;2024-01-06T03:26:49;6.27;;;3.90;;
15112;SDS011;7657;50.140;7.076;2024-01-06T03:29:16;9.90;;;5.20;;
15112;SDS011;7657;50.140;7.076;2024-01-06T03:31:45;8.57;;;4.63;;
15112;SDS011;7657;50.140;7.076;2024-01-06T03:34:12;17.93;;;8.60;;
15112;SDS011;7657;50.140;7.076;2024-01-06T03:36:39;10.23;;;5.20;;
15112;SDS011;7657;50.140;7.076;2024-01-06T03:39:06;5.13;;;3.10;;
15112;SDS011;7657;50.140;7.076;2024-01-06T03:41:33;16.07;;;8.50;;
15112;SDS011;7657;50.140;7.076;2024-01-06T03:44:00;6.47;;;3.70;;
15112;SDS011;7657;50.140;7.076;2024-01-06T03:46:27;23.83;;;11.40;;
15112;SDS011;7657;50.140;7.076;2024-01-06T03:48:55;4.47;;;3.53;;
15112;SDS011;7657;50.140;7.076;2024-01-06T03:51:22;10.90;;;6.27;;
15112;SDS011;7657;50.140;7.076;2024-01-06T03:53:49;8.73;;;5.00;;
15112;SDS011;7657;50.140;7.076;2024-01-06T03:56:16;5.73;;;3.53;;
15112;SDS011;7657;50.140;7.076;2024-01-06T03:58:43;4.60;;;3.20;;
15112;SDS011;7657;50.140;7.076;2024-01-06T04:01:10;4.57;;;3.10;;
15112;SDS011;7657;50.140;7.076;2024-01-06T04:03:37;5.30;;;3.63;;
15112;SDS011;7657;50.140;7.076;2024-01-06T04:06:06;8.20;;;3.50;;
15112;SDS011;7657;50.140;7.076;2024-01-06T04:08:33;3.57;;;3.03;;
15112;SDS011;7657;50.140;7.076;2024-01-06T04:11:01;5.30;;;3.53;;
15112;SDS011;7657;50.140;7.076;2024-01-06T04:13:28;6.60;;;3.70;;
15112;SDS011;7657;50.140;7.076;2024-01-06T04:15:55;6.73;;;4.40;;
15112;SDS011;7657;50.140;7.076;2024-01-06T04:18:22;4.37;;;3.20;;
15112;SDS011;7657;50.140;7.076;2024-01-06T04:20:49;4.40;;;3.60;;
15112;SDS011;7657;50.140;7.076;2024-01-06T04:23:18;5.80;;;4.20;;
15112;SDS011;7657;50.140;7.076;2024-01-06T04:25:45;7.33;;;3.70;;
15112;SDS011;7657;50.140;7.076;2024-01-06T04:28:12;5.37;;;3.23;;
15112;SDS011;7657;50.140;7.076;2024-01-06T04:30:39;7.47;;;4.40;;
15112;SDS011;7657;50.140;7.076;2024-01-06T04:33:05;4.53;;;3.70;;
15112;SDS011;7657;50.140;7.076;2024-01-06T04:35:32;4.00;;;3.10;;
15112;SDS011;7657;50.140;7.076;2024-01-06T04:37:59;3.67;;;2.90;;
15112;SDS011;7657;50.140;7.076;2024-01-06T04:40:27;4.53;;;3.30;;
15112;SDS011;7657;50.140;7.076;2024-01-06T04:42:55;4.50;;;2.90;;
15112;SDS011;7657;50.140;7.076;2024-01-06T04:45:22;5.90;;;3.77;;
15112;SDS011;7657;50.140;7.076;2024-01-06T04:47:49;4.67;;;3.00;;
15112;SDS011;7657;50.140;7.076;2024-01-06T04:50:16;4.60;;;3.47;;
15112;SDS011;7657;50.140;7.076;2024-01-06T04:52:43;3.90;;;3.03;;
15112;SDS011;7657;50.140;7.076;2024-01-06T04:55:10;6.93;;;4.00;;
15112;SDS011;7657;50.140;7.076;2024-01-06T04:57:38;4.33;;;3.43;;
15112;SDS011;7657;50.140;7.076;2024-01-06T05:00:06;4.40;;;3.17;;
15112;SDS011;7657;50.140;7.076;2024-01-06T05:02:33;4.17;;;3.40;;
15112;SDS011;7657;50.140;7.076;2024-01-06T05:05:00;6.63;;;4.90;;
15112;SDS011;7657;50.140;7.076;2024-01-06T05:07:27;6.37;;;3.67;;
15112;SDS011;7657;50.140;7.076;2024-01-06T05:09:54;5.43;;;3.80;;
15112;SDS011;7657;50.140;7.076;2024-01-06T05:12:21;8.80;;;4.93;;
15112;SDS011;7657;50.140;7.076;2024-01-06T05:14:49;8.30;;;4.47;;
15112;SDS011;7657;50.140;7.076;2024-01-06T05:17:16;8.90;;;4.40;;
15112;SDS011;7657;50.140;7.076;2024-01-06T05:19:43;6.70;;;4.20;;
15112;SDS011;7657;50.140;7.076;2024-01-06T05:22:10;6.17;;;4.10;;
15112;SDS011;7657;50.140;7.076;2024-01-06T05:24:37;6.07;;;4.40;;
15112;SDS011;7657;50.140;7.076;2024-01-06T05:27:04;5.80;;;4.57;;
15112;SDS011;7657;50.140;7.076;2024-01-06T05:29:31;5.67;;;4.17;;
15112;SDS011;7657;50.140;7.076;2024-01-06T05:31:59;4.90;;;4.00;;
15112;SDS011;7657;50.140;7.076;2024-01-06T05:34:26;6.17;;;4.00;;
15112;SDS011;7657;50.140;7.076;2024-01-06T05:36:53;4.07;;;3.67;;
15112;SDS011;7657;50.140;7.076;2024-01-06T05:39:19;5.30;;;3.60;;
15112;SDS011;7657;50.140;7.076;2024-01-06T05:41:46;5.80;;;4.00;;
15112;SDS011;7657;50.140;7.076;2024-01-06T05:44:13;3.50;;;3.20;;
15112;SDS011;7657;50.140;7.076;2024-01-06T05:46:40;5.50;;;3.50;;
15112;SDS011;7657;50.140;7.076;2024-01-06T05:49:08;4.73;;;3.47;;
15112;SDS011;7657;50.140;7.076;2024-01-06T05:51:35;4.07;;;3.53;;
15112;SDS011;7657;50.140;7.076;2024-01-06T05:54:02;4.50;;;3.60;;
15112;SDS011;7657;50.140;7.076;2024-01-06T05:56:29;4.00;;;3.60;;
15112;SDS011;7657;50.140;7.076;2024-01-06T05:58:56;4.73;;;3.50;;
15112;SDS011;7657;50.140;7.076;2024-01-06T06:01:23;5.23;;;3.60;;
15112;SDS011;7657;50.140;7.076;2024-01-06T06:03:50;4.10;;;3.10;;
15112;SDS011;7657;50.140;7.076;2024-01-06T06:06:18;5.23;;;3.33;;
15112;SDS011;7657;50.140;7.076;2024-01-06T06:08:45;4.93;;;3.43;;
15112;SDS011;7657;50.140;7.076;2024-01-06T06:11:13;3.93;;;3.27;;
15112;SDS011;7657;50.140;7.076;2024-01-06T06:13:40;5.07;;;3.10;;
15112;SDS011;7657;50.140;7.076;2024-01-06T06:16:08;4.00;;;3.10;;
15112;SDS011;7657;50.140;7.076;2024-01-06T06:18:37;6.17;;;3.20;;
15112;SDS011;7657;50.140;7.076;2024-01-06T06:21:04;6.17;;;3.93;;
15112;SDS011;7657;50.140;7.076;2024-01-06T06:23:33;4.90;;;3.70;;
15112;SDS011;7657;50.140;7.076;2024-01-06T06:26:03;6.47;;;3.67;;
15112;SDS011;7657;50.140;7.076;2024-01-06T06:28:31;6.57;;;4.17;;
15112;SDS011;7657;50.140;7.076;2024-01-06T06:30:58;4.97;;;3.80;;
15112;SDS011;7657;50.140;7.076;2024-01-06T06:33:25;5.57;;;4.00;;
15112;SDS011;7657;50.140;7.076;2024-01-06T06:35:52;5.30;;;3.97;;
15112;SDS011;7657;50.140;7.076;2024-01-06T06:38:19;5.60;;;4.10;;
15112;SDS011;7657;50.140;7.076;2024-01-06T06:40:47;4.63;;;3.87;;
15112;SDS011;7657;50.140;7.076;2024-01-06T06:43:14;5.93;;;3.83;;
15112;SDS011;7657;50.140;7.076;2024-01-06T06:45:41;3.90;;;3.40;;
15112;SDS011;7657;50.140;7.076;2024-01-06T06:48:08;4.40;;;3.80;;
15112;SDS011;7657;50.140;7.076;2024-01-06T06:50:35;5.63;;;3.70;;
15112;SDS011;7657;50.140;7.076;2024-01-06T06:53:02;4.30;;;3.60;;
15112;SDS011;7657;50.140;7.076;2024-01-06T06:55:29;3.93;;;3.53;;
15112;SDS011;7657;50.140;7.076;2024-01-06T06:57:57;5.87;;;3.57;;
15112;SDS011;7657;50.140;7.076;2024-01-06T07:00:24;6.07;;;3.70;;
15112;SDS011;7657;50.140;7.076;2024-01-06T07:02:51;5.10;;;3.80;;
15112;SDS011;7657;50.140;7.076;2024-01-06T07:05:18;5.97;;;4.00;;
15112;SDS011;7657;50.140;7.076;2024-01-06T07:07:45;4.37;;;3.53;;
15112;SDS011;7657;50.140;7.076;2024-01-06T07:10:12;5.10;;;4.00;;
15112;SDS011;7657;50.140;7.076;2024-01-06T07:12:39;4.90;;;3.80;;
15112;SDS011;7657;50.140;7.076;2024-01-06T07:15:08;6.20;;;4.17;;
15112;SDS011;7657;50.140;7.076;2024-01-06T07:17:36;5.37;;;3.70;;
15112;SDS011;7657;50.140;7.076;2024-01-06T07:20:03;6.00;;;4.10;;
15112;SDS011;7657;50.140;7.076;2024-01-06T07:22:32;4.60;;;3.83;;
15112;SDS011;7657;50.140;7.076;2024-01-06T07:24:59;6.00;;;4.07;;
15112;SDS011;7657;50.140;7.076;2024-01-06T07:27:26;4.83;;;3.97;;
15112;SDS011;7657;50.140;7.076;2024-01-06T07:29:53;6.37;;;4.07;;
15112;SDS011;7657;50.140;7.076;2024-01-06T07:32:22;5.27;;;4.10;;
15112;SDS011;7657;50.140;7.076;2024-01-06T07:34:49;6.17;;;3.90;;
15112;SDS011;7657;50.140;7.076;2024-01-06T07:37:16;5.33;;;3.93;;
15112;SDS011;7657;50.140;7.076;2024-01-06T07:39:43;7.70;;;3.93;;
15112;SDS011;7657;50.140;7.076;2024-01-06T07:42:10;5.40;;;3.80;;
15112;SDS011;7657;50.140;7.076;2024-01-06T07:44:37;5.27;;;3.83;;
15112;SDS011;7657;50.140;7.076;2024-01-06T07:47:03;8.03;;;4.00;;
15112;SDS011;7657;50.140;7.076;2024-01-06T07:49:32;5.87;;;3.70;;
15112;SDS011;7657;50.140;7.076;2024-01-06T07:51:59;4.37;;;3.93;;
15112;SDS011;7657;50.140;7.076;2024-01-06T07:54:26;5.40;;;3.80;;
15112;SDS011;7657;50.140;7.076;2024-01-06T07:56:53;5.07;;;3.23;;
15112;SDS011;7657;50.140;7.076;2024-01-06T07:59:20;5.77;;;3.47;;
15112;SDS011;7657;50.140;7.076;2024-01-06T08:01:47;3.33;;;2.93;;
15112;SDS011;7657;50.140;7.076;2024-01-06T08:04:14;5.67;;;3.53;;
15112;SDS011;7657;50.140;7.076;2024-01-06T08:06:42;5.60;;;3.77;;
15112;SDS011;7657;50.140;7.076;2024-01-06T08:09:09;6.40;;;3.80;;
15112;SDS011;7657;50.140;7.076;2024-01-06T08:11:36;5.67;;;3.27;;
15112;SDS011;7657;50.140;7.076;2024-01-06T08:14:04;4.30;;;3.37;;
15112;SDS011;7657;50.140;7.076;2024-01-06T08:16:31;3.70;;;3.30;;
15112;SDS011;7657;50.140;7.076;2024-01-06T08:18:58;5.13;;;3.70;;
15112;SDS011;7657;50.140;7.076;2024-01-06T08:21:25;5.40;;;3.57;;
15112;SDS011;7657;50.140;7.076;2024-01-06T08:23:53;5.33;;;3.20;;
15112;SDS011;7657;50.140;7.076;2024-01-06T08:26:20;3.50;;;2.93;;
15112;SDS011;7657;50.140;7.076;2024-01-06T08:28:47;4.60;;;3.60;;
15112;SDS011;7657;50.140;7.076;2024-01-06T08:31:14;18.23;;;16.63;;
15112;SDS011;7657;50.140;7.076;2024-01-06T08:33:41;5.17;;;4.47;;
15112;SDS011;7657;50.140;7.076;2024-01-06T08:36:08;4.97;;;3.60;;
15112;SDS011;7657;50.140;7.076;2024-01-06T08:38:35;9.03;;;7.30;;
15112;SDS011;7657;50.140;7.076;2024-01-06T08:41:04;14.67;;;13.33;;
15112;SDS011;7657;50.140;7.076;2024-01-06T08:43:31;18.57;;;16.90;;
15112;SDS011;7657;50.140;7.076;2024-01-06T08:45:57;23.83;;;21.27;;
15112;SDS011;7657;50.140;7.076;2024-01-06T08:48:25;8.53;;;6.30;;
15112;SDS011;7657;50.140;7.076;2024-01-06T08:50:52;7.87;;;7.13;;
15112;SDS011;7657;50.140;7.076;2024-01-06T08:53:19;5.03;;;3.17;;
15112;SDS011;7657;50.140;7.076;2024-01-06T08:55:46;3.93;;;3.20;;
15112;SDS011;7657;50.140;7.076;2024-01-06T08:58:14;3.60;;;2.80;;
15112;SDS011;7657;50.140;7.076;2024-01-06T09:00:43;4.97;;;3.00;;
15112;SDS011;7657;50.140;7.076;2024-01-06T09:03:10;3.60;;;3.00;;
15112;SDS011;7657;50.140;7.076;2024-01-06T09:05:38;5.10;;;3.40;;
15112;SDS011;7657;50.140;7.076;2024-01-06T09:08:05;7.07;;;6.47;;
15112;SDS011;7657;50.140;7.076;2024-01-06T09:10:32;3.20;;;2.87;;
15112;SDS011;7657;50.140;7.076;2024-01-06T09:12:59;5.10;;;3.97;;
15112;SDS011;7657;50.140;7.076;2024-01-06T09:15:28;3.90;;;3.43;;
15112;SDS011;7657;50.140;7.076;2024-01-06T09:17:55;3.27;;;2.80;;
15112;SDS011;7657;50.140;7.076;2024-01-06T09:20:22;3.60;;;3.00;;
15112;SDS011;7657;50.140;7.076;2024-01-06T09:22:49;4.07;;;3.27;;
15112;SDS011;7657;50.140;7.076;2024-01-06T09:25:16;3.73;;;3.33;;
15112;SDS011;7657;50.140;7.076;2024-01-06T09:27:43;4.03;;;3.13;;
15112;SDS011;7657;50.140;7.076;2024-01-06T09:30:10;4.30;;;2.80;;
15112;SDS011;7657;50.140;7.076;2024-01-06T09:32:39;2.57;;;2.37;;
15112;SDS011;7657;50.140;7.076;2024-01-06T09:35:06;2.93;;;2.73;;
15112;SDS011;7657;50.140;7.076;2024-01-06T09:37:33;7.07;;;4.93;;
15112;SDS011;7657;50.140;7.076;2024-01-06T09:39:59;6.13;;;4.20;;
15112;SDS011;7657;50.140;7.076;2024-01-06T09:42:26;8.77;;;7.83;;
15112;SDS011;7657;50.140;7.076;2024-01-06T09:44:53;7.37;;;4.73;;
15112;SDS011;7657;50.140;7.076;2024-01-06T09:47:22;5.73;;;4.30;;
15112;SDS011;7657;50.140;7.076;2024-01-06T09:49:50;4.00;;;2.90;;
15112;SDS011;7657;50.140;7.076;2024-01-06T09:52:20;9.07;;;6.10;;
15112;SDS011;7657;50.140;7.076;2024-01-06T09:54:50;3.17;;;2.80;;
15112;SDS011;7657;50.140;7.076;2024-01-06T09:57:18;3.63;;;2.53;;
15112;SDS011;7657;50.140;7.076;2024-01-06T09:59:46;2.70;;;2.50;;
15112;SDS011;7657;50.140;7.076;2024-01-06T10:02:14;4.53;;;3.10;;
15112;SDS011;7657;50.140;7.076;2024-01-06T10:04:41;3.00;;;2.40;;
15112;SDS011;7657;50.140;7.076;2024-01-06T10:07:10;3.30;;;2.37;;
15112;SDS011;7657;50.140;7.076;2024-01-06T10:09:38;4.67;;;4.27;;
15112;SDS011;7657;50.140;7.076;2024-01-06T10:12:06;5.60;;;3.97;;
15112;SDS011;7657;50.140;7.076;2024-01-06T10:14:34;10.53;;;4.60;;
15112;SDS011;7657;50.140;7.076;2024-01-06T10:17:02;2.37;;;1.70;;
15112;SDS011;7657;50.140;7.076;2024-01-06T10:19:32;2.53;;;2.30;;
15112;SDS011;7657;50.140;7.076;2024-01-06T10:21:59;1.10;;;1.00;;
15112;SDS011;7657;50.140;7.076;2024-01-06T10:24:29;0.70;;;0.70;;
15112;SDS011;7657;50.140;7.076;2024-01-06T10:26:56;2.20;;;2.10;;
15112;SDS011;7657;50.140;7.076;2024-01-06T10:29:24;1.73;;;1.63;;
15112;SDS011;7657;50.140;7.076;2024-01-06T10:31:52;2.57;;;2.47;;
15112;SDS011;7657;50.140;7.076;2024-01-06T10:34:20;2.10;;;2.00;;
15112;SDS011;7657;50.140;7.076;2024-01-06T10:36:47;2.40;;;2.27;;
15112;SDS011;7657;50.140;7.076;2024-01-06T10:39:17;13.83;;;10.23;;
15112;SDS011;7657;50.140;7.076;2024-01-06T10:41:46;2.43;;;2.17;;
15112;SDS011;7657;50.140;7.076;2024-01-06T10:44:15;4.37;;;3.97;;
15112;SDS011;7657;50.140;7.076;2024-01-06T10:46:42;4.50;;;4.07;;
15112;SDS011;7657;50.140;7.076;2024-01-06T10:49:10;3.70;;;2.73;;
15112;SDS011;7657;50.140;7.076;2024-01-06T10:51:38;1.73;;;1.60;;
15112;SDS011;7657;50.140;7.076;2024-01-06T10:54:05;1.70;;;1.60;;
15112;SDS011;7657;50.140;7.076;2024-01-06T10:56:36;1.80;;;1.00;;
15112;SDS011;7657;50.140;7.076;2024-01-06T10:59:05;1.70;;;1.40;;
15112;SDS011;7657;50.140;7.076;2024-01-06T11:01:33;1.40;;;1.30;;
15112;SDS011;7657;50.140;7.076;2024-01-06T11:04:00;1.20;;;1.10;;
15112;SDS011;7657;50.140;7.076;2024-01-06T11:06:29;2.43;;;2.23;;
15112;SDS011;7657;50.140;7.076;2024-01-06T11:08:59;1.40;;;1.30;;
15112;SDS011;7657;50.140;7.076;2024-01-06T11:11:32;1.50;;;1.40;;
15112;SDS011;7657;50.140;7.076;2024-01-06T11:14:22;1.90;;;1.80;;
15112;SDS011;7657;50.140;7.076;2024-01-06T11:16:50;2.30;;;2.10;;
15112;SDS011;7657;50.140;7.076;2024-01-06T11:25:05;2.37;;;2.17;;
15112;SDS011;7657;50.140;7.076;2024-01-06T11:27:33;2.30;;;1.80;;
15112;SDS011;7657;50.140;7.076;2024-01-06T11:30:03;2.20;;;2.00;;
15112;SDS011;7657;50.140;7.076;2024-01-06T11:32:31;2.73;;;2.37;;
15112;SDS011;7657;50.140;7.076;2024-01-06T11:35:05;2.10;;;1.90;;
15112;SDS011;7657;50.140;7.076;2024-01-06T11:37:39;2.23;;;1.80;;
15112;SDS011;7657;50.140;7.076;2024-01-06T11:40:22;2.33;;;2.13;;
15112;SDS011;7657;50.140;7.076;2024-01-06T11:42:56;3.57;;;3.27;;
15112;SDS011;7657;50.140;7.076;2024-01-06T11:45:26;7.47;;;4.60;;
15112;SDS011;7657;50.140;7.076;2024-01-06T11:47:54;8.60;;;6.97;;
15112;SDS011;7657;50.140;7.076;2024-01-06T11:50:23;7.80;;;6.50;;
15112;SDS011;7657;50.140;7.076;2024-01-06T11:52:51;30.17;;;20.37;;
15112;SDS011;7657;50.140;7.076;2024-01-06T11:55:18;14.57;;;11.27;;
15112;SDS011;7657;50.140;7.076;2024-01-06T11:57:46;30.40;;;22.50;;
15112;SDS011;7657;50.140;7.076;2024-01-06T12:00:14;43.10;;;30.87;;
15112;SDS011;7657;50.140;7.076;2024-01-06T12:02:43;14.60;;;10.73;;
15112;SDS011;7657;50.140;7.076;2024-01-06T12:05:14;18.23;;;12.60;;
15112;SDS011;7657;50.140;7.076;2024-01-06T12:07:43;4.50;;;3.27;;
15112;SDS011;7657;50.140;7.076;2024-01-06T12:10:10;12.47;;;10.80;;
15112;SDS011;7657;50.140;7.076;2024-01-06T12:12:39;4.63;;;3.37;;
15112;SDS011;7657;50.140;7.076;2024-01-06T12:15:06;4.60;;;3.97;;
15112;SDS011;7657;50.140;7.076;2024-01-06T12:17:35;11.40;;;10.03;;
15112;SDS011;7657;50.140;7.076;2024-01-06T12:20:04;13.50;;;11.70;;
15112;SDS011;7657;50.140;7.076;2024-01-06T12:22:33;16.87;;;14.53;;
15112;SDS011;7657;50.140;7.076;2024-01-06T12:25:00;20.03;;;17.63;;
15112;SDS011;7657;50.140;7.076;2024-01-06T12:27:31;8.47;;;5.23;;
15112;SDS011;7657;50.140;7.076;2024-01-06T12:29:58;6.07;;;4.30;;
15112;SDS011;7657;50.140;7.076;2024-01-06T12:32:25;4.33;;;3.27;;
15112;SDS011;7657;50.140;7.076;2024-01-06T12:34:52;3.70;;;3.20;;
15112;SDS011;7657;50.140;7.076;2024-01-06T12:37:23;3.67;;;2.87;;
15112;SDS011;7657;50.140;7.076;2024-01-06T12:39:50;2.70;;;2.50;;
15112;SDS011;7657;50.140;7.076;2024-01-06T12:42:17;2.53;;;2.33;;
15112;SDS011;7657;50.140;7.076;2024-01-06T12:44:45;2.10;;;1.90;;
15112;SDS011;7657;50.140;7.076;2024-01-06T12:47:12;5.17;;;3.50;;
15112;SDS011;7657;50.140;7.076;2024-01-06T12:49:39;3.00;;;2.27;;
15112;SDS011;7657;50.140;7.076;2024-01-06T12:52:06;2.43;;;2.20;;
15112;SDS011;7657;50.140;7.076;2024-01-06T12:54:34;2.40;;;2.00;;
15112;SDS011;7657;50.140;7.076;2024-01-06T12:57:01;2.67;;;2.27;;
15112;SDS011;7657;50.140;7.076;2024-01-06T12:59:28;1.93;;;1.77;;
15112;SDS011;7657;50.140;7.076;2024-01-06T13:01:56;8.33;;;5.37;;
15112;SDS011;7657;50.140;7.076;2024-01-06T13:04:22;2.50;;;2.17;;
15112;SDS011;7657;50.140;7.076;2024-01-06T13:06:49;6.90;;;4.50;;
15112;SDS011;7657;50.140;7.076;2024-01-06T13:09:16;3.13;;;2.20;;
15112;SDS011;7657;50.140;7.076;2024-01-06T13:11:45;35.53;;;22.60;;
15112;SDS011;7657;50.140;7.076;2024-01-06T13:14:12;4.70;;;3.50;;
15112;SDS011;7657;50.140;7.076;2024-01-06T13:16:39;9.07;;;6.57;;
15112;SDS011;7657;50.140;7.076;2024-01-06T13:19:06;3.40;;;2.47;;
15112;SDS011;7657;50.140;7.076;2024-01-06T13:21:33;4.23;;;3.17;;
15112;SDS011;7657;50.140;7.076;2024-01-06T13:24:00;2.60;;;2.30;;
15112;SDS011;7657;50.140;7.076;2024-01-06T13:26:29;2.20;;;2.00;;
15112;SDS011;7657;50.140;7.076;2024-01-06T13:28:58;2.43;;;2.00;;
15112;SDS011;7657;50.140;7.076;2024-01-06T13:31:26;1.70;;;1.60;;
15112;SDS011;7657;50.140;7.076;2024-01-06T13:33:54;1.33;;;1.20;;
15112;SDS011;7657;50.140;7.076;2024-01-06T13:36:21;1.57;;;1.20;;
15112;SDS011;7657;50.140;7.076;2024-01-06T13:38:47;1.73;;;1.40;;
15112;SDS011;7657;50.140;7.076;2024-01-06T13:41:14;31.20;;;16.30;;
15112;SDS011;7657;50.140;7.076;2024-01-06T13:43:41;18.10;;;10.47;;
15112;SDS011;7657;50.140;7.076;2024-01-06T13:46:10;7.80;;;4.27;;
15112;SDS011;7657;50.140;7.076;2024-01-06T13:48:38;2.33;;;2.13;;
15112;SDS011;7657;50.140;7.076;2024-01-06T13:51:05;1.90;;;1.70;;
15112;SDS011;7657;50.140;7.076;2024-01-06T13:53:32;2.10;;;1.90;;
15112;SDS011;7657;50.140;7.076;2024-01-06T13:56:00;1.70;;;1.60;;
15112;SDS011;7657;50.140;7.076;2024-01-06T13:58:28;3.67;;;2.40;;
15112;SDS011;7657;50.140;7.076;2024-01-06T14:00:55;4.63;;;3.63;;
15112;SDS011;7657;50.140;7.076;2024-01-06T14:03:26;2.73;;;2.40;;
15112;SDS011;7657;50.140;7.076;2024-01-06T14:05:53;3.20;;;2.70;;
15112;SDS011;7657;50.140;7.076;2024-01-06T14:08:20;4.50;;;4.10;;
15112;SDS011;7657;50.140;7.076;2024-01-06T14:10:47;3.53;;;3.23;;
15112;SDS011;7657;50.140;7.076;2024-01-06T14:13:14;17.50;;;9.53;;
15112;SDS011;7657;50.140;7.076;2024-01-06T14:15:41;15.07;;;8.67;;
15112;SDS011;7657;50.140;7.076;2024-01-06T14:18:08;21.67;;;12.70;;
15112;SDS011;7657;50.140;7.076;2024-01-06T14:20:38;31.13;;;16.77;;
15112;SDS011;7657;50.140;7.076;2024-01-06T14:23:05;30.17;;;16.50;;
15112;SDS011;7657;50.140;7.076;2024-01-06T14:25:32;22.37;;;12.13;;
15112;SDS011;7657;50.140;7.076;2024-01-06T14:27:59;18.00;;;10.03;;
15112;SDS011;7657;50.140;7.076;2024-01-06T14:30:26;23.93;;;13.20;;
15112;SDS011;7657;50.140;7.076;2024-01-06T14:32:54;20.77;;;11.80;;
15112;SDS011;7657;50.140;7.076;2024-01-06T14:35:21;23.83;;;11.47;;
15112;SDS011;7657;50.140;7.076;2024-01-06T14:37:49;24.73;;;13.93;;
15112;SDS011;7657;50.140;7.076;2024-01-06T14:40:18;9.80;;;6.43;;
15112;SDS011;7657;50.140;7.076;2024-01-06T14:42:44;6.77;;;4.53;;
15112;SDS011;7657;50.140;7.076;2024-01-06T14:45:11;5.90;;;4.57;;
15112;SDS011;7657;50.140;7.076;2024-01-06T14:47:39;8.87;;;5.27;;
15112;SDS011;7657;50.140;7.076;2024-01-06T14:50:07;14.07;;;9.30;;
15112;SDS011;7657;50.140;7.076;2024-01-06T14:52:34;45.10;;;24.83;;
15112;SDS011;7657;50.140;7.076;2024-01-06T14:55:02;31.83;;;15.13;;
15112;SDS011;7657;50.140;7.076;2024-01-06T14:57:30;18.17;;;11.60;;
15112;SDS011;7657;50.140;7.076;2024-01-06T14:59:57;13.77;;;8.83;;
15112;SDS011;7657;50.140;7.076;2024-01-06T15:02:24;11.93;;;8.43;;
15112;SDS011;7657;50.140;7.076;2024-01-06T15:04:51;13.10;;;9.27;;